createdAt,value
2022-12-16T00:02:17.310Z,99717.84
2022-12-16T00:04:43.646Z,99714.25
2022-12-16T00:07:09.962Z,99719.44
2022-12-16T00:09:36.297Z,99715.03
2022-12-16T00:12:02.615Z,99706.56
2022-12-16T00:14:29.319Z,99699.00
2022-12-16T00:16:55.636Z,99706.63
2022-12-16T00:19:21.967Z,99697.66
2022-12-16T00:21:48.282Z,99697.97
2022-12-16T00:24:14.588Z,99702.63
2022-12-16T00:26:40.913Z,99706.16
2022-12-16T00:29:07.286Z,99704.00
2022-12-16T00:31:33.684Z,99702.94
2022-12-16T00:34:00.060Z,99697.75
2022-12-16T00:36:26.404Z,99699.78
2022-12-16T00:38:52.751Z,99706.00
2022-12-16T00:41:19.862Z,99703.94
2022-12-16T00:43:46.296Z,99702.06
2022-12-16T00:46:12.670Z,99712.75
2022-12-16T00:48:39.045Z,99704.28
2022-12-16T00:51:05.710Z,99701.13
2022-12-16T00:53:32.349Z,99702.59
2022-12-16T00:55:58.892Z,99702.66
2022-12-16T00:58:25.214Z,99708.47
2022-12-16T01:00:51.548Z,99702.84
2022-12-16T01:03:21.728Z,99702.00
2022-12-16T01:05:48.503Z,99698.53
2022-12-16T01:08:14.813Z,99699.34
2022-12-16T01:10:41.127Z,99696.37
2022-12-16T01:13:07.442Z,99698.06
2022-12-16T01:15:34.830Z,99701.31
2022-12-16T01:18:01.161Z,99708.19
2022-12-16T01:20:27.527Z,99712.00
2022-12-16T01:22:53.830Z,99718.34
2022-12-16T01:25:21.240Z,99714.53
2022-12-16T01:27:47.574Z,99711.69
2022-12-16T01:30:13.895Z,99705.97
2022-12-16T01:32:40.244Z,99706.28
2022-12-16T01:35:18.109Z,99694.06
2022-12-16T01:37:52.855Z,99703.91
2022-12-16T01:40:21.165Z,99690.28
2022-12-16T01:42:47.586Z,99686.75
2022-12-16T01:45:13.907Z,99697.59
2022-12-16T01:47:40.233Z,99702.75
2022-12-16T01:50:06.549Z,99697.09
2022-12-16T01:52:33.033Z,99695.22
2022-12-16T01:54:59.350Z,99702.59
2022-12-16T01:57:25.741Z,99701.72
2022-12-16T01:59:52.051Z,99700.12
2022-12-16T02:02:18.786Z,99695.63
2022-12-16T02:05:05.207Z,99685.12
2022-12-16T02:07:31.567Z,99675.31
2022-12-16T02:09:57.871Z,99676.94
2022-12-16T02:12:24.196Z,99683.97
2022-12-16T02:14:50.637Z,99670.84
2022-12-16T02:17:17.089Z,99661.34
2022-12-16T02:19:43.426Z,99668.44
2022-12-16T02:22:09.747Z,99666.53
2022-12-16T02:24:36.068Z,99663.19
2022-12-16T02:27:02.386Z,99667.75
2022-12-16T02:29:28.757Z,99660.47
2022-12-16T02:31:55.255Z,99662.03
2022-12-16T02:34:21.597Z,99666.00
2022-12-16T02:36:48.463Z,99665.37
2022-12-16T02:39:15.572Z,99652.88
2022-12-16T02:41:42.445Z,99648.31
2022-12-16T02:44:08.777Z,99649.81
2022-12-16T02:46:35.133Z,99656.91
2022-12-16T02:49:01.481Z,99645.41
2022-12-16T02:51:27.827Z,99644.09
2022-12-16T02:53:54.152Z,99641.56
2022-12-16T02:56:20.756Z,99634.53
2022-12-16T02:58:47.105Z,99640.47
2022-12-16T03:01:13.498Z,99643.69
2022-12-16T03:03:43.666Z,99639.56
2022-12-16T03:06:10.559Z,99635.19
2022-12-16T03:08:36.900Z,99630.94
2022-12-16T03:11:03.513Z,99637.72
2022-12-16T03:13:30.046Z,99632.00
2022-12-16T03:15:56.536Z,99625.78
2022-12-16T03:18:22.851Z,99627.13
2022-12-16T03:20:49.150Z,99626.91
2022-12-16T03:23:15.473Z,99628.19
2022-12-16T03:25:41.775Z,99616.12
2022-12-16T03:28:08.098Z,99616.38
2022-12-16T03:30:34.483Z,99619.72
2022-12-16T03:33:00.838Z,99622.38
2022-12-16T03:35:27.183Z,99625.59
2022-12-16T03:37:53.485Z,99622.09
2022-12-16T03:40:19.814Z,99615.00
2022-12-16T03:42:46.136Z,99626.25
2022-12-16T03:45:12.501Z,99632.06
2022-12-16T03:47:38.816Z,99624.91
2022-12-16T03:50:05.135Z,99626.19
2022-12-16T03:52:31.448Z,99628.41
2022-12-16T03:54:57.775Z,99621.81
2022-12-16T03:57:24.122Z,99639.72
2022-12-16T03:59:50.426Z,99631.88
2022-12-16T04:02:16.828Z,99629.47
2022-12-16T04:04:43.323Z,99640.78
2022-12-16T04:07:21.966Z,99641.94
2022-12-16T04:09:48.269Z,99628.31
2022-12-16T04:12:33.401Z,99637.16
2022-12-16T04:15:38.234Z,99639.03
2022-12-16T04:18:23.103Z,99633.38
2022-12-16T04:21:11.610Z,99646.28
2022-12-16T04:23:56.533Z,99647.03
2022-12-16T04:26:22.877Z,99649.25
2022-12-16T04:28:49.178Z,99647.88
2022-12-16T04:31:15.557Z,99644.38
2022-12-16T04:34:00.670Z,99658.34
2022-12-16T04:36:45.700Z,99660.00
2022-12-16T04:39:30.836Z,99664.59
2022-12-16T04:42:16.043Z,99658.97
2022-12-16T04:45:01.189Z,99669.56
2022-12-16T04:47:46.176Z,99671.03
2022-12-16T04:50:31.182Z,99671.03
2022-12-16T04:53:16.133Z,99661.81
2022-12-16T04:56:04.319Z,99669.62
2022-12-16T04:58:50.232Z,99673.16
2022-12-16T05:01:35.339Z,99672.66
2022-12-16T05:04:20.457Z,99675.59
2022-12-16T05:07:05.387Z,99685.72
2022-12-16T05:09:50.317Z,99681.25
2022-12-16T05:12:35.444Z,99684.00
2022-12-16T05:15:20.478Z,99695.81
2022-12-16T05:18:05.239Z,99700.69
2022-12-16T05:20:50.233Z,99694.78
2022-12-16T05:23:35.571Z,99692.06
2022-12-16T05:26:20.888Z,99710.09
2022-12-16T05:29:06.186Z,99705.75
2022-12-16T05:31:51.142Z,99704.66
2022-12-16T05:34:36.150Z,99702.63
2022-12-16T05:37:21.030Z,99700.06
2022-12-16T05:40:06.017Z,99695.66
2022-12-16T05:42:51.011Z,99704.09
2022-12-16T05:45:35.861Z,99699.62
2022-12-16T05:48:20.953Z,99700.94
2022-12-16T05:51:05.838Z,99691.16
2022-12-16T05:53:50.746Z,99697.97
2022-12-16T05:56:35.669Z,99702.38
2022-12-16T05:59:20.685Z,99705.78
2022-12-16T06:02:05.714Z,99711.19
2022-12-16T06:04:50.909Z,99711.56
2022-12-16T06:07:35.848Z,99724.53
2022-12-16T06:10:20.707Z,99719.19
2022-12-16T06:13:05.608Z,99729.72
2022-12-16T06:15:50.810Z,99721.75
2022-12-16T06:18:36.058Z,99733.72
2022-12-16T06:21:21.038Z,99722.59
2022-12-16T06:24:06.086Z,99728.06
2022-12-16T06:26:50.928Z,99740.38
2022-12-16T06:29:35.835Z,99740.69
2022-12-16T06:32:20.925Z,99740.44
2022-12-16T06:35:05.903Z,99745.62
2022-12-16T06:37:50.854Z,99747.03
2022-12-16T06:40:35.726Z,99752.84
2022-12-16T06:43:20.815Z,99756.28
2022-12-16T06:46:05.872Z,99761.16
2022-12-16T06:48:50.885Z,99763.91
2022-12-16T06:51:35.918Z,99770.28
2022-12-16T06:54:20.808Z,99770.09
2022-12-16T06:57:05.734Z,99774.50
2022-12-16T06:59:54.299Z,99784.19
2022-12-16T07:02:39.548Z,99791.53
2022-12-16T07:05:24.869Z,99794.72
2022-12-16T07:08:09.930Z,99795.34
2022-12-16T07:10:55.727Z,99805.84
2022-12-16T07:13:42.908Z,99803.72
2022-12-16T07:16:27.794Z,99811.06
2022-12-16T07:19:13.112Z,99817.34
2022-12-16T07:21:58.060Z,99818.59
2022-12-16T07:24:42.985Z,99821.91
2022-12-16T07:27:27.937Z,99829.44
2022-12-16T07:30:12.883Z,99826.34
2022-12-16T07:32:57.734Z,99827.44
2022-12-16T07:35:44.506Z,99843.53
2022-12-16T07:38:29.569Z,99845.56
2022-12-16T07:41:14.676Z,99851.00
2022-12-16T07:43:59.804Z,99854.34
2022-12-16T07:46:44.812Z,99851.00
2022-12-16T07:49:29.683Z,99857.69
2022-12-16T07:52:14.549Z,99860.47
2022-12-16T07:54:59.642Z,99862.66
2022-12-16T07:57:44.856Z,99863.91
2022-12-16T08:00:29.707Z,99860.41
2022-12-16T08:03:14.692Z,99856.66
2022-12-16T08:05:59.876Z,99863.41
2022-12-16T08:08:44.759Z,99874.69
2022-12-16T08:11:29.635Z,99875.44
2022-12-16T08:14:14.458Z,99876.09
2022-12-16T08:16:59.455Z,99866.81
2022-12-16T08:19:44.780Z,99870.63
2022-12-16T08:22:30.023Z,99871.37
2022-12-16T08:25:14.980Z,99879.97
2022-12-16T08:27:59.894Z,99894.66
2022-12-16T08:30:44.896Z,99895.28
2022-12-16T08:33:30.144Z,99893.41
2022-12-16T08:36:14.990Z,99899.41
2022-12-16T08:38:59.899Z,99900.97
2022-12-16T08:41:44.883Z,99903.66
2022-12-16T08:44:29.710Z,99901.22
2022-12-16T08:47:14.654Z,99902.69
2022-12-16T08:50:02.020Z,99901.91
2022-12-16T08:52:47.710Z,99900.06
2022-12-16T08:55:32.761Z,99914.53
2022-12-16T08:58:17.640Z,99922.59
2022-12-16T09:01:07.110Z,99909.22
2022-12-16T09:03:52.837Z,99916.66
2022-12-16T09:06:40.584Z,99919.72
2022-12-16T09:09:26.061Z,99925.50
2022-12-16T09:12:11.004Z,99928.00
2022-12-16T09:14:56.093Z,99928.09
2022-12-16T09:17:41.644Z,99930.31
2022-12-16T09:20:26.494Z,99944.25
2022-12-16T09:23:11.533Z,99941.78
2022-12-16T09:25:56.491Z,99944.81
2022-12-16T09:28:41.666Z,99939.34
2022-12-16T09:31:26.607Z,99944.22
2022-12-16T09:34:11.940Z,99960.91
2022-12-16T09:36:56.963Z,99953.84
2022-12-16T09:39:42.365Z,99955.13
2022-12-16T09:42:27.333Z,99957.38
2022-12-16T09:45:12.183Z,99977.38
2022-12-16T09:47:57.147Z,99973.84
2022-12-16T09:50:42.083Z,99975.22
2022-12-16T09:53:27.055Z,99973.31
2022-12-16T09:56:12.008Z,99982.09
2022-12-16T09:58:56.906Z,99979.09
2022-12-16T10:01:41.885Z,99987.84
2022-12-16T10:04:27.109Z,99993.66
2022-12-16T10:07:12.391Z,99978.91
2022-12-16T10:09:57.506Z,99977.22
2022-12-16T10:12:45.431Z,99986.53
2022-12-16T10:15:30.630Z,99985.75
2022-12-16T10:18:15.739Z,99987.91
2022-12-16T10:21:00.971Z,99979.81
2022-12-16T10:23:45.891Z,99982.25
2022-12-16T10:26:30.926Z,99973.78
2022-12-16T10:29:15.849Z,99982.62
2022-12-16T10:32:00.764Z,99986.34
2022-12-16T10:34:45.782Z,99990.97
2022-12-16T10:37:30.952Z,99990.44
2022-12-16T10:40:15.828Z,99983.94
2022-12-16T10:43:00.647Z,99985.03
2022-12-16T10:45:45.657Z,99994.37
2022-12-16T10:48:30.872Z,99996.22
2022-12-16T10:51:16.288Z,100009.56
2022-12-16T10:54:01.489Z,100003.37
2022-12-16T10:56:46.334Z,99999.84
2022-12-16T10:59:31.650Z,99997.12
2022-12-16T11:02:16.673Z,99988.31
2022-12-16T11:05:01.919Z,99995.38
2022-12-16T11:07:46.864Z,99990.41
2022-12-16T11:10:31.828Z,99989.88
2022-12-16T11:13:16.743Z,99992.13
2022-12-16T11:16:01.666Z,99995.38
2022-12-16T11:18:47.054Z,100002.22
2022-12-16T11:21:31.921Z,100004.41
2022-12-16T11:24:16.950Z,100004.41
2022-12-16T11:27:01.925Z,100005.16
2022-12-16T11:29:46.851Z,100021.78
2022-12-16T11:32:31.786Z,100023.97
2022-12-16T11:35:16.596Z,100011.72
2022-12-16T11:38:01.604Z,100017.09
2022-12-16T11:40:46.727Z,100025.34
2022-12-16T11:43:32.153Z,100015.94
2022-12-16T11:46:17.414Z,100034.59
2022-12-16T11:49:02.750Z,100040.75
2022-12-16T11:51:47.799Z,100036.31
2022-12-16T11:54:32.714Z,100033.87
2022-12-16T11:57:17.523Z,100042.16
2022-12-16T12:00:02.562Z,100040.78
2022-12-16T12:02:47.710Z,100041.72
2022-12-16T12:05:32.914Z,100043.06
2022-12-16T12:08:18.182Z,100040.50
2022-12-16T12:11:03.053Z,100045.41
2022-12-16T12:13:47.947Z,100045.44
2022-12-16T12:16:33.000Z,100059.62
2022-12-16T12:19:18.200Z,100056.88
2022-12-16T12:22:03.107Z,100057.06
2022-12-16T12:24:47.974Z,100057.75
2022-12-16T12:27:33.107Z,100060.53
2022-12-16T12:30:18.074Z,100074.81
2022-12-16T12:33:23.259Z,100074.59
2022-12-16T12:36:11.382Z,100082.66
2022-12-16T12:38:56.215Z,100083.34
2022-12-16T12:41:41.312Z,100079.72
2022-12-16T12:44:36.458Z,100074.19
2022-12-16T12:47:27.245Z,100083.78
2022-12-16T12:50:12.250Z,100089.78
2022-12-16T12:52:57.173Z,100079.34
2022-12-16T12:55:42.178Z,100086.34
2022-12-16T12:58:27.350Z,100082.75
2022-12-16T13:01:12.613Z,100090.28
2022-12-16T13:03:57.825Z,100092.94
2022-12-16T13:06:42.673Z,100094.75
2022-12-16T13:09:27.633Z,100103.97
2022-12-16T13:12:12.536Z,100112.16
2022-12-16T13:14:57.587Z,100119.19
2022-12-16T13:17:42.409Z,100122.41
2022-12-16T13:20:27.406Z,100133.72
2022-12-16T13:23:12.721Z,100127.16
2022-12-16T13:25:57.894Z,100136.31
2022-12-16T13:28:42.822Z,100136.72
2022-12-16T13:31:27.814Z,100139.97
2022-12-16T13:34:13.090Z,100146.38
2022-12-16T13:36:58.384Z,100143.88
2022-12-16T13:39:43.403Z,100147.81
2022-12-16T13:42:28.323Z,100147.75
2022-12-16T13:45:13.356Z,100150.00
2022-12-16T13:47:58.425Z,100159.25
2022-12-16T13:50:43.334Z,100174.94
2022-12-16T13:53:28.212Z,100167.25
2022-12-16T13:56:13.159Z,100163.84
2022-12-16T13:58:58.258Z,100173.66
2022-12-16T14:01:44.946Z,100185.31
2022-12-16T14:04:30.005Z,100196.28
2022-12-16T14:07:17.618Z,100202.78
2022-12-16T14:10:06.457Z,100204.62
2022-12-16T14:12:51.391Z,100212.56
2022-12-16T14:15:36.358Z,100213.44
2022-12-16T14:18:21.234Z,100219.19
2022-12-16T14:21:06.258Z,100228.19
2022-12-16T14:23:58.780Z,100225.62
2022-12-16T14:26:43.988Z,100229.78
2022-12-16T14:29:28.923Z,100233.66
2022-12-16T14:32:14.048Z,100238.22
2022-12-16T14:34:59.327Z,100248.50
2022-12-16T14:37:44.362Z,100256.22
2022-12-16T14:40:29.276Z,100260.63
2022-12-16T14:43:14.249Z,100255.09
2022-12-16T14:45:59.220Z,100263.31
2022-12-16T14:48:49.622Z,100259.00
2022-12-16T14:51:34.919Z,100266.19
2022-12-16T14:54:19.733Z,100264.47
2022-12-16T14:57:04.685Z,100268.66
2022-12-16T14:59:49.587Z,100265.09
2022-12-16T15:02:34.730Z,100277.41
2022-12-16T15:05:19.978Z,100282.81
2022-12-16T15:08:04.909Z,100280.25
2022-12-16T15:10:49.912Z,100283.00
2022-12-16T15:13:35.134Z,100290.00
2022-12-16T15:16:20.583Z,100293.12
2022-12-16T15:19:05.873Z,100300.22
2022-12-16T15:21:50.838Z,100303.88
2022-12-16T15:24:36.286Z,100316.31
2022-12-16T15:27:21.184Z,100309.69
2022-12-16T15:30:06.095Z,100312.28
2022-12-16T15:32:50.899Z,100322.31
2022-12-16T15:35:35.851Z,100324.56
2022-12-16T15:38:20.664Z,100326.22
2022-12-16T15:41:25.517Z,100322.66
2022-12-16T15:44:12.293Z,100338.09
2022-12-16T15:46:57.225Z,100345.50
2022-12-16T15:49:42.166Z,100343.62
2022-12-16T15:52:27.072Z,100342.06
2022-12-16T15:55:12.113Z,100347.06
2022-12-16T15:57:57.088Z,100351.91
2022-12-16T16:00:42.252Z,100351.75
2022-12-16T16:03:27.508Z,100360.94
2022-12-16T16:06:12.874Z,100368.28
2022-12-16T16:08:57.770Z,100363.31
2022-12-16T16:11:42.797Z,100374.31
2022-12-16T16:14:27.882Z,100385.56
2022-12-16T16:17:12.892Z,100377.41
2022-12-16T16:20:03.197Z,100376.34
2022-12-16T16:22:48.778Z,100375.97
2022-12-16T16:25:33.810Z,100385.22
2022-12-16T16:28:18.688Z,100380.00
2022-12-16T16:31:03.582Z,100396.25
2022-12-16T16:33:48.970Z,100392.31
2022-12-16T16:36:34.044Z,100383.25
2022-12-16T16:39:18.952Z,100392.31
2022-12-16T16:42:03.813Z,100400.94
2022-12-16T16:44:48.862Z,100396.53
2022-12-16T16:47:33.729Z,100407.09
2022-12-16T16:50:19.549Z,100406.59
2022-12-16T16:53:04.640Z,100409.16
2022-12-16T16:55:49.570Z,100420.06
2022-12-16T16:58:34.540Z,100414.44
2022-12-16T17:01:19.538Z,100418.94
2022-12-16T17:04:04.970Z,100420.25
2022-12-16T17:07:06.803Z,100420.13
2022-12-16T17:09:51.798Z,100414.31
2022-12-16T17:12:36.646Z,100436.34
2022-12-16T17:15:21.707Z,100437.75
2022-12-16T17:18:06.717Z,100428.81
2022-12-16T17:20:53.239Z,100433.78
2022-12-16T17:23:38.252Z,100435.59
2022-12-16T17:26:23.276Z,100455.13
2022-12-16T17:29:08.217Z,100465.81
2022-12-16T17:31:53.157Z,100459.19
2022-12-16T17:34:38.284Z,100474.72
2022-12-16T17:37:23.261Z,100466.53
2022-12-16T17:40:08.221Z,100479.91
2022-12-16T17:42:53.216Z,100482.16
2022-12-16T17:45:38.243Z,100479.56
2022-12-16T17:48:23.139Z,100471.37
2022-12-16T17:51:08.214Z,100485.06
2022-12-16T17:53:58.660Z,100486.41
2022-12-16T17:56:46.171Z,100492.41
2022-12-16T17:59:31.443Z,100495.97
2022-12-16T18:02:16.661Z,100490.31
2022-12-16T18:05:02.121Z,100495.97
2022-12-16T18:07:47.083Z,100510.69
2022-12-16T18:10:32.094Z,100510.81
2022-12-16T18:13:17.038Z,100503.94
2022-12-16T18:16:02.221Z,100508.69
2022-12-16T18:18:47.513Z,100505.59
2022-12-16T18:21:32.448Z,100510.31
2022-12-16T18:24:17.494Z,100504.59
2022-12-16T18:27:02.391Z,100512.63
2022-12-16T18:29:47.535Z,100522.19
2022-12-16T18:32:35.266Z,100514.00
2022-12-16T18:35:20.552Z,100515.72
2022-12-16T18:38:05.684Z,100513.62
2022-12-16T18:40:50.551Z,100522.72
2022-12-16T18:43:35.956Z,100530.84
2022-12-16T18:46:21.430Z,100535.00
2022-12-16T18:49:06.654Z,100534.34
2022-12-16T18:51:51.674Z,100540.25
2022-12-16T18:54:36.719Z,100536.72
2022-12-16T18:57:21.635Z,100543.09
2022-12-16T19:00:06.691Z,100532.81
2022-12-16T19:02:51.803Z,100538.03
2022-12-16T19:05:37.192Z,100538.66
2022-12-16T19:08:22.113Z,100537.63
2022-12-16T19:11:07.068Z,100543.72
2022-12-16T19:13:52.002Z,100539.03
2022-12-16T19:16:37.200Z,100538.81
2022-12-16T19:19:22.443Z,100548.09
2022-12-16T19:22:07.347Z,100559.19
2022-12-16T19:24:52.162Z,100560.84
2022-12-16T19:27:37.099Z,100558.28
2022-12-16T19:30:22.265Z,100560.13
2022-12-16T19:33:07.190Z,100553.72
2022-12-16T19:35:53.732Z,100552.44
2022-12-16T19:38:38.674Z,100555.69
2022-12-16T19:41:23.753Z,100569.31
2022-12-16T19:44:08.557Z,100568.00
2022-12-16T19:46:55.979Z,100562.28
2022-12-16T19:49:44.338Z,100576.69
2022-12-16T19:52:46.425Z,100573.81
2022-12-16T19:55:31.347Z,100583.19
2022-12-16T19:58:16.593Z,100581.12
2022-12-16T20:01:01.457Z,100587.75
2022-12-16T20:03:47.207Z,100592.91
2022-12-16T20:06:32.829Z,100603.72
2022-12-16T20:09:18.032Z,100602.72
2022-12-16T20:12:03.022Z,100613.16
2022-12-16T20:14:47.928Z,100621.00
2022-12-16T20:17:32.892Z,100622.44
2022-12-16T20:20:37.993Z,100625.03
2022-12-16T20:23:23.014Z,100628.06
2022-12-16T20:26:07.894Z,100626.00
2022-12-16T20:28:52.707Z,100626.22
2022-12-16T20:31:41.208Z,100632.59
2022-12-16T20:34:26.259Z,100637.81
2022-12-16T20:37:11.311Z,100641.59
2022-12-16T20:43:01.208Z,100644.59
2022-12-16T20:45:46.047Z,100648.34
2022-12-16T20:48:30.969Z,100656.47
2022-12-16T20:54:20.883Z,100664.06
2022-12-16T20:57:08.262Z,100666.78
2022-12-16T20:59:57.615Z,100669.50
2022-12-16T21:02:42.936Z,100664.50
2022-12-16T21:05:28.051Z,100670.44
2022-12-16T21:08:13.005Z,100671.25
2022-12-16T21:10:58.036Z,100675.66
2022-12-16T21:13:43.749Z,100678.66
2022-12-16T21:16:29.225Z,100679.22
2022-12-16T21:19:14.309Z,100683.50
2022-12-16T21:21:59.205Z,100694.41
2022-12-16T21:24:44.601Z,100697.38
2022-12-16T21:27:29.537Z,100700.81
2022-12-16T21:30:14.674Z,100704.00
2022-12-16T21:33:00.012Z,100702.56
2022-12-16T21:35:44.867Z,100711.13
2022-12-16T21:38:29.772Z,100708.75
2022-12-16T21:41:14.848Z,100717.19
2022-12-16T21:44:00.112Z,100716.56
2022-12-16T21:46:45.070Z,100726.31
2022-12-16T21:49:30.371Z,100723.59
2022-12-16T21:52:15.780Z,100727.50
2022-12-16T21:55:00.633Z,100724.75
2022-12-16T21:57:45.537Z,100728.91
2022-12-16T22:00:30.488Z,100734.38
2022-12-16T22:03:15.526Z,100745.66
2022-12-16T22:06:00.416Z,100752.16
2022-12-16T22:08:45.230Z,100752.06
2022-12-16T22:11:30.114Z,100755.13
2022-12-16T22:14:15.019Z,100763.19
2022-12-16T22:17:00.211Z,100760.22
2022-12-16T22:19:45.407Z,100765.13
2022-12-16T22:22:30.379Z,100760.84
2022-12-16T22:25:15.345Z,100769.84
2022-12-16T22:28:00.303Z,100759.16
2022-12-16T22:30:45.386Z,100776.16
2022-12-16T22:33:30.587Z,100765.47
2022-12-16T22:36:15.326Z,100770.56
2022-12-16T22:36:21.427Z,100648.81
2022-12-16T22:39:00.382Z,100770.56
2022-12-16T22:41:45.226Z,100774.81
2022-12-16T22:44:30.417Z,100770.44
2022-12-16T22:47:15.378Z,100766.37
2022-12-16T22:50:00.220Z,100778.63
2022-12-16T22:52:45.170Z,100782.66
2022-12-16T22:55:29.978Z,100791.19
2022-12-16T22:58:19.587Z,100788.09
2022-12-16T23:01:04.631Z,100791.88
2022-12-16T23:03:49.580Z,100800.44
2022-12-16T23:06:34.774Z,100795.59
2022-12-16T23:09:19.827Z,100789.78
2022-12-16T23:12:04.757Z,100798.22
2022-12-16T23:14:49.825Z,100802.59
2022-12-16T23:17:34.699Z,100797.25
2022-12-16T23:20:19.719Z,100800.81
2022-12-16T23:23:04.645Z,100799.63
2022-12-16T23:25:49.604Z,100800.09
2022-12-16T23:28:34.526Z,100807.34
2022-12-16T23:31:19.594Z,100797.84
2022-12-16T23:34:04.887Z,100795.94
2022-12-16T23:36:49.929Z,100796.19
2022-12-16T23:39:34.859Z,100807.56
2022-12-16T23:42:19.800Z,100800.69
2022-12-16T23:45:04.669Z,100816.84
2022-12-16T23:47:49.475Z,100810.78
2022-12-16T23:50:34.446Z,100815.53
2022-12-16T23:53:19.224Z,100815.28
2022-12-16T23:56:04.180Z,100822.50
2022-12-16T23:58:49.141Z,100817.53
